Archival Weather

Chicago O'Hare International

Chicago, Illinois (KORD)

Report from: Wednesday, September 6, 2023 9:51 PM CDT
Current time: Wednesday, May 29, 2024 6:14 PM CDT

Current weather – Weather history – Daily summaries
Weather forecast

Present weatherLight rain
Temperature21.7°C (71.1°F)
Dew point18.9°C (66.0°F)
Winds 8 kts (4.1 m/s, 9.2 mph) West-Southwest (250°)
Visibility9 mi. (14.5 km)
Clouds Scattered clouds 1,100 ft. (335 m)
Ceiling: Broken clouds 1,700 ft. (518 m)
Overcast 3,000 ft. (914 m)
Altimeter29.80 in.Hg (1009 mB)
PrecipitiationTrace
Precip. events Rain began 2:16 AM
Rain ended 2:26 AM
Rain began 2:48 AM
Precip last 3 hoursTrace
Relative humidity84 %
Density altitude1,229 ft. (374 m)
Sea-level pressure100.9 kPa (1009 mB, 29.79 in.Hg)
Remarks Automated weather observing station with precipitation discriminator
Pressure rising more quickly
Flight conditions Marginal Visual Meteorological Conditions
Raw dataKORD 070251Z 25008KT 9SM -RA SCT011 BKN017 OVC030 22/19 A2980 RMK AO2 RAB16E26B48 SLP088 P0000 60000 T02170189 53006
An error has occurred. This application may no longer respond until reloaded. Reload 🗙